sensor_id;sensor_type;location;lat;lon;timestamp;temperature;humidity
62809;DHT22;48848;39.002;-94.584;2023-02-04T00:00:07;19.40;22.80
62809;DHT22;48848;39.002;-94.584;2023-02-04T00:02:33;19.20;22.90
62809;DHT22;48848;39.002;-94.584;2023-02-04T00:04:59;19.10;23.00
62809;DHT22;48848;39.002;-94.584;2023-02-04T00:07:25;18.90;23.10
62809;DHT22;48848;39.002;-94.584;2023-02-04T00:09:51;18.60;23.30
62809;DHT22;48848;39.002;-94.584;2023-02-04T00:12:16;18.60;23.80
62809;DHT22;48848;39.002;-94.584;2023-02-04T00:14:42;19.20;23.80
62809;DHT22;48848;39.002;-94.584;2023-02-04T00:17:08;20.40;23.10
62809;DHT22;48848;39.002;-94.584;2023-02-04T00:19:38;21.00;22.50
62809;DHT22;48848;39.002;-94.584;2023-02-04T00:22:04;21.50;22.20
62809;DHT22;48848;39.002;-94.584;2023-02-04T00:24:32;21.00;21.70
62809;DHT22;48848;39.002;-94.584;2023-02-04T00:26:58;20.40;22.10
62809;DHT22;48848;39.002;-94.584;2023-02-04T00:29:24;19.90;22.50
62809;DHT22;48848;39.002;-94.584;2023-02-04T00:31:50;19.40;22.70
62809;DHT22;48848;39.002;-94.584;2023-02-04T00:34:16;19.10;23.10
62809;DHT22;48848;39.002;-94.584;2023-02-04T00:36:43;18.90;23.20
62809;DHT22;48848;39.002;-94.584;2023-02-04T00:39:09;18.50;23.50
62809;DHT22;48848;39.002;-94.584;2023-02-04T00:41:34;18.00;24.10
62809;DHT22;48848;39.002;-94.584;2023-02-04T00:44:00;17.60;24.60
62809;DHT22;48848;39.002;-94.584;2023-02-04T00:46:26;18.50;24.70
62809;DHT22;48848;39.002;-94.584;2023-02-04T00:48:52;19.80;23.90
62809;DHT22;48848;39.002;-94.584;2023-02-04T00:51:18;20.80;22.90
62809;DHT22;48848;39.002;-94.584;2023-02-04T00:53:44;21.60;22.30
62809;DHT22;48848;39.002;-94.584;2023-02-04T00:56:10;21.40;21.60
62809;DHT22;48848;39.002;-94.584;2023-02-04T00:58:35;20.20;22.10
62809;DHT22;48848;39.002;-94.584;2023-02-04T01:01:01;19.70;22.50
62809;DHT22;48848;39.002;-94.584;2023-02-04T01:03:27;19.10;23.00
62809;DHT22;48848;39.002;-94.584;2023-02-04T01:05:53;18.60;23.60
62809;DHT22;48848;39.002;-94.584;2023-02-04T01:08:19;18.30;24.00
62809;DHT22;48848;39.002;-94.584;2023-02-04T01:10:45;18.00;24.30
62809;DHT22;48848;39.002;-94.584;2023-02-04T01:13:11;17.60;24.70
62809;DHT22;48848;39.002;-94.584;2023-02-04T01:15:37;17.30;24.80
62809;DHT22;48848;39.002;-94.584;2023-02-04T01:18:02;17.90;25.20
62809;DHT22;48848;39.002;-94.584;2023-02-04T01:20:28;19.30;24.40
62809;DHT22;48848;39.002;-94.584;2023-02-04T01:22:54;20.50;23.40
62809;DHT22;48848;39.002;-94.584;2023-02-04T01:25:20;21.30;22.80
62809;DHT22;48848;39.002;-94.584;2023-02-04T01:27:46;21.20;21.80
62809;DHT22;48848;39.002;-94.584;2023-02-04T01:30:13;20.20;22.30
62809;DHT22;48848;39.002;-94.584;2023-02-04T01:32:39;19.60;23.50
62809;DHT22;48848;39.002;-94.584;2023-02-04T01:35:05;19.10;23.20
62809;DHT22;48848;39.002;-94.584;2023-02-04T01:37:31;18.50;23.80
62809;DHT22;48848;39.002;-94.584;2023-02-04T01:39:57;18.10;24.20
62809;DHT22;48848;39.002;-94.584;2023-02-04T01:42:23;17.80;24.60
62809;DHT22;48848;39.002;-94.584;2023-02-04T01:44:49;17.50;24.90
62809;DHT22;48848;39.002;-94.584;2023-02-04T01:47:15;17.50;25.10
62809;DHT22;48848;39.002;-94.584;2023-02-04T01:49:41;18.60;25.10
62809;DHT22;48848;39.002;-94.584;2023-02-04T01:52:08;20.00;24.10
62809;DHT22;48848;39.002;-94.584;2023-02-04T01:54:34;20.70;23.20
62809;DHT22;48848;39.002;-94.584;2023-02-04T01:57:00;21.40;22.60
62809;DHT22;48848;39.002;-94.584;2023-02-04T01:59:26;20.20;22.30
62809;DHT22;48848;39.002;-94.584;2023-02-04T02:01:52;19.40;22.90
62809;DHT22;48848;39.002;-94.584;2023-02-04T02:04:20;18.80;23.50
62809;DHT22;48848;39.002;-94.584;2023-02-04T02:06:48;18.30;24.10
62809;DHT22;48848;39.002;-94.584;2023-02-04T02:09:16;18.00;24.50
62809;DHT22;48848;39.002;-94.584;2023-02-04T02:11:42;17.70;24.80
62809;DHT22;48848;39.002;-94.584;2023-02-04T02:14:08;17.40;24.90
62809;DHT22;48848;39.002;-94.584;2023-02-04T02:16:34;17.40;25.10
62809;DHT22;48848;39.002;-94.584;2023-02-04T02:19:00;18.10;25.40
62809;DHT22;48848;39.002;-94.584;2023-02-04T02:21:29;19.50;24.50
62809;DHT22;48848;39.002;-94.584;2023-02-04T02:23:55;20.40;23.50
62809;DHT22;48848;39.002;-94.584;2023-02-04T02:26:21;21.10;23.00
62809;DHT22;48848;39.002;-94.584;2023-02-04T02:28:48;20.00;22.40
62809;DHT22;48848;39.002;-94.584;2023-02-04T02:31:15;19.30;23.00
62809;DHT22;48848;39.002;-94.584;2023-02-04T02:33:41;18.70;23.60
62809;DHT22;48848;39.002;-94.584;2023-02-04T02:36:07;18.20;24.20
62809;DHT22;48848;39.002;-94.584;2023-02-04T02:38:33;17.90;24.40
62809;DHT22;48848;39.002;-94.584;2023-02-04T02:40:59;17.60;24.70
62809;DHT22;48848;39.002;-94.584;2023-02-04T02:43:25;17.40;25.00
62809;DHT22;48848;39.002;-94.584;2023-02-04T02:45:51;17.40;25.20
62809;DHT22;48848;39.002;-94.584;2023-02-04T02:48:18;18.50;25.10
62809;DHT22;48848;39.002;-94.584;2023-02-04T02:50:44;19.70;24.10
62809;DHT22;48848;39.002;-94.584;2023-02-04T02:53:11;20.70;23.20
62809;DHT22;48848;39.002;-94.584;2023-02-04T02:55:37;20.90;22.40
62809;DHT22;48848;39.002;-94.584;2023-02-04T02:58:03;19.70;22.60
62809;DHT22;48848;39.002;-94.584;2023-02-04T03:00:33;19.20;23.30
62809;DHT22;48848;39.002;-94.584;2023-02-04T03:05:25;18.10;24.30
62809;DHT22;48848;39.002;-94.584;2023-02-04T03:07:52;17.80;24.70
62809;DHT22;48848;39.002;-94.584;2023-02-04T03:10:18;17.40;25.00
62809;DHT22;48848;39.002;-94.584;2023-02-04T03:12:44;17.20;25.40
62809;DHT22;48848;39.002;-94.584;2023-02-04T03:15:10;17.60;25.60
62809;DHT22;48848;39.002;-94.584;2023-02-04T03:17:36;18.90;25.00
62809;DHT22;48848;39.002;-94.584;2023-02-04T03:20:02;20.30;24.00
62809;DHT22;48848;39.002;-94.584;2023-02-04T03:22:29;21.10;23.20
62809;DHT22;48848;39.002;-94.584;2023-02-04T03:24:55;20.60;22.30
62809;DHT22;48848;39.002;-94.584;2023-02-04T03:27:23;19.40;23.10
62809;DHT22;48848;39.002;-94.584;2023-02-04T03:29:49;18.80;23.60
62809;DHT22;48848;39.002;-94.584;2023-02-04T03:32:15;18.30;24.20
62809;DHT22;48848;39.002;-94.584;2023-02-04T03:34:41;17.80;24.70
62809;DHT22;48848;39.002;-94.584;2023-02-04T03:37:07;17.50;24.90
62809;DHT22;48848;39.002;-94.584;2023-02-04T03:39:33;17.20;25.10
62809;DHT22;48848;39.002;-94.584;2023-02-04T03:41:59;17.20;25.40
62809;DHT22;48848;39.002;-94.584;2023-02-04T03:44:25;17.50;25.30
62809;DHT22;48848;39.002;-94.584;2023-02-04T03:46:53;18.90;25.40
62809;DHT22;48848;39.002;-94.584;2023-02-04T03:49:20;20.00;24.10
62809;DHT22;48848;39.002;-94.584;2023-02-04T03:51:46;19.20;23.30
62809;DHT22;48848;39.002;-94.584;2023-02-04T03:54:12;18.60;23.90
62809;DHT22;48848;39.002;-94.584;2023-02-04T03:56:38;18.10;24.50
62809;DHT22;48848;39.002;-94.584;2023-02-04T03:59:04;17.60;24.80
62809;DHT22;48848;39.002;-94.584;2023-02-04T04:01:29;17.30;25.10
62809;DHT22;48848;39.002;-94.584;2023-02-04T04:03:55;17.10;25.40
62809;DHT22;48848;39.002;-94.584;2023-02-04T04:06:21;16.90;25.70
62809;DHT22;48848;39.002;-94.584;2023-02-04T04:08:47;16.60;26.00
62809;DHT22;48848;39.002;-94.584;2023-02-04T04:11:13;16.50;26.20
62809;DHT22;48848;39.002;-94.584;2023-02-04T04:13:39;16.30;26.20
62809;DHT22;48848;39.002;-94.584;2023-02-04T04:16:05;16.20;26.40
62809;DHT22;48848;39.002;-94.584;2023-02-04T04:18:31;16.10;26.50
62809;DHT22;48848;39.002;-94.584;2023-02-04T04:20:57;16.00;26.50
62809;DHT22;48848;39.002;-94.584;2023-02-04T04:23:23;15.90;26.50
62809;DHT22;48848;39.002;-94.584;2023-02-04T04:25:49;15.90;26.60
62809;DHT22;48848;39.002;-94.584;2023-02-04T04:28:15;15.80;26.60
62809;DHT22;48848;39.002;-94.584;2023-02-04T04:30:41;15.70;26.60
62809;DHT22;48848;39.002;-94.584;2023-02-04T04:33:07;15.60;26.60
62809;DHT22;48848;39.002;-94.584;2023-02-04T04:35:33;15.60;26.70
62809;DHT22;48848;39.002;-94.584;2023-02-04T04:38:02;15.50;26.70
62809;DHT22;48848;39.002;-94.584;2023-02-04T04:40:28;15.40;27.60
62809;DHT22;48848;39.002;-94.584;2023-02-04T04:42:54;15.40;26.80
62809;DHT22;48848;39.002;-94.584;2023-02-04T04:45:20;15.30;26.90
62809;DHT22;48848;39.002;-94.584;2023-02-04T04:47:46;15.30;27.10
62809;DHT22;48848;39.002;-94.584;2023-02-04T04:50:12;15.20;26.90
62809;DHT22;48848;39.002;-94.584;2023-02-04T04:52:38;15.10;26.90
62809;DHT22;48848;39.002;-94.584;2023-02-04T04:55:04;15.10;27.10
62809;DHT22;48848;39.002;-94.584;2023-02-04T04:57:30;15.00;27.00
62809;DHT22;48848;39.002;-94.584;2023-02-04T04:59:56;14.90;27.00
62809;DHT22;48848;39.002;-94.584;2023-02-04T05:02:22;14.90;27.20
62809;DHT22;48848;39.002;-94.584;2023-02-04T05:04:48;14.80;27.00
62809;DHT22;48848;39.002;-94.584;2023-02-04T05:07:14;14.70;27.10
62809;DHT22;48848;39.002;-94.584;2023-02-04T05:09:40;14.70;28.00
62809;DHT22;48848;39.002;-94.584;2023-02-04T05:12:06;14.60;27.10
62809;DHT22;48848;39.002;-94.584;2023-02-04T05:14:31;14.60;27.20
62809;DHT22;48848;39.002;-94.584;2023-02-04T05:16:57;14.60;27.40
62809;DHT22;48848;39.002;-94.584;2023-02-04T05:19:23;14.50;27.30
62809;DHT22;48848;39.002;-94.584;2023-02-04T05:21:49;14.40;27.40
62809;DHT22;48848;39.002;-94.584;2023-02-04T05:24:15;14.50;27.30
62809;DHT22;48848;39.002;-94.584;2023-02-04T05:26:41;14.40;27.40
62809;DHT22;48848;39.002;-94.584;2023-02-04T05:29:06;14.40;27.50
62809;DHT22;48848;39.002;-94.584;2023-02-04T05:31:32;14.40;27.40
62809;DHT22;48848;39.002;-94.584;2023-02-04T05:33:58;14.30;27.50
62809;DHT22;48848;39.002;-94.584;2023-02-04T05:36:24;14.20;27.40
62809;DHT22;48848;39.002;-94.584;2023-02-04T05:38:50;14.20;27.60
62809;DHT22;48848;39.002;-94.584;2023-02-04T05:41:16;14.20;27.60
62809;DHT22;48848;39.002;-94.584;2023-02-04T05:43:42;14.10;27.60
62809;DHT22;48848;39.002;-94.584;2023-02-04T05:46:07;14.10;27.80
62809;DHT22;48848;39.002;-94.584;2023-02-04T05:48:33;14.10;27.80
62809;DHT22;48848;39.002;-94.584;2023-02-04T05:50:59;14.00;27.80
62809;DHT22;48848;39.002;-94.584;2023-02-04T05:53:25;14.00;27.90
62809;DHT22;48848;39.002;-94.584;2023-02-04T05:55:51;14.00;27.90
62809;DHT22;48848;39.002;-94.584;2023-02-04T05:58:17;13.90;27.90
62809;DHT22;48848;39.002;-94.584;2023-02-04T06:00:43;13.90;27.90
62809;DHT22;48848;39.002;-94.584;2023-02-04T06:03:08;13.90;28.00
62809;DHT22;48848;39.002;-94.584;2023-02-04T06:05:34;13.80;28.00
62809;DHT22;48848;39.002;-94.584;2023-02-04T06:08:00;13.80;28.10
62809;DHT22;48848;39.002;-94.584;2023-02-04T06:10:26;13.80;28.10
62809;DHT22;48848;39.002;-94.584;2023-02-04T06:12:52;13.70;28.10
62809;DHT22;48848;39.002;-94.584;2023-02-04T06:15:18;13.70;28.10
62809;DHT22;48848;39.002;-94.584;2023-02-04T06:17:44;13.70;28.20
62809;DHT22;48848;39.002;-94.584;2023-02-04T06:20:12;13.60;28.10
62809;DHT22;48848;39.002;-94.584;2023-02-04T06:22:37;13.60;28.30
62809;DHT22;48848;39.002;-94.584;2023-02-04T06:25:03;13.60;28.20
62809;DHT22;48848;39.002;-94.584;2023-02-04T06:27:29;13.50;28.40
62809;DHT22;48848;39.002;-94.584;2023-02-04T06:29:55;13.50;28.30
62809;DHT22;48848;39.002;-94.584;2023-02-04T06:32:21;13.40;28.30
62809;DHT22;48848;39.002;-94.584;2023-02-04T06:34:48;13.40;28.40
62809;DHT22;48848;39.002;-94.584;2023-02-04T06:37:14;13.40;28.50
62809;DHT22;48848;39.002;-94.584;2023-02-04T06:39:41;13.30;28.40
62809;DHT22;48848;39.002;-94.584;2023-02-04T06:42:07;13.30;28.40
62809;DHT22;48848;39.002;-94.584;2023-02-04T06:44:33;13.20;28.30
62809;DHT22;48848;39.002;-94.584;2023-02-04T06:46:59;13.20;28.50
62809;DHT22;48848;39.002;-94.584;2023-02-04T06:49:25;13.20;28.70
62809;DHT22;48848;39.002;-94.584;2023-02-04T06:51:51;13.20;28.60
62809;DHT22;48848;39.002;-94.584;2023-02-04T06:54:17;13.10;28.60
62809;DHT22;48848;39.002;-94.584;2023-02-04T06:56:43;13.10;28.60
62809;DHT22;48848;39.002;-94.584;2023-02-04T06:59:09;13.10;28.80
62809;DHT22;48848;39.002;-94.584;2023-02-04T07:01:35;13.00;28.80
62809;DHT22;48848;39.002;-94.584;2023-02-04T07:04:01;13.00;28.90
62809;DHT22;48848;39.002;-94.584;2023-02-04T07:06:27;13.00;29.70
62809;DHT22;48848;39.002;-94.584;2023-02-04T07:08:52;12.90;28.70
62809;DHT22;48848;39.002;-94.584;2023-02-04T07:11:18;12.90;29.00
62809;DHT22;48848;39.002;-94.584;2023-02-04T07:13:44;13.30;29.00
62809;DHT22;48848;39.002;-94.584;2023-02-04T07:16:10;13.90;28.40
62809;DHT22;48848;39.002;-94.584;2023-02-04T07:18:36;14.40;28.00
62809;DHT22;48848;39.002;-94.584;2023-02-04T07:21:02;14.60;27.60
62809;DHT22;48848;39.002;-94.584;2023-02-04T07:23:28;14.30;28.00
62809;DHT22;48848;39.002;-94.584;2023-02-04T07:25:53;14.00;28.30
62809;DHT22;48848;39.002;-94.584;2023-02-04T07:28:23;13.70;28.60
62809;DHT22;48848;39.002;-94.584;2023-02-04T07:30:49;13.60;28.90
62809;DHT22;48848;39.002;-94.584;2023-02-04T07:33:16;13.40;29.00
62809;DHT22;48848;39.002;-94.584;2023-02-04T07:35:41;13.30;29.00
62809;DHT22;48848;39.002;-94.584;2023-02-04T07:38:08;13.30;29.20
62809;DHT22;48848;39.002;-94.584;2023-02-04T07:40:34;13.20;29.20
62809;DHT22;48848;39.002;-94.584;2023-02-04T07:43:00;13.20;29.30
62809;DHT22;48848;39.002;-94.584;2023-02-04T07:45:26;13.10;29.30
62809;DHT22;48848;39.002;-94.584;2023-02-04T07:47:52;13.10;29.40
62809;DHT22;48848;39.002;-94.584;2023-02-04T07:50:18;13.00;29.50
62809;DHT22;48848;39.002;-94.584;2023-02-04T07:52:43;13.30;29.50
62809;DHT22;48848;39.002;-94.584;2023-02-04T07:55:09;14.00;29.00
62809;DHT22;48848;39.002;-94.584;2023-02-04T07:57:35;14.60;28.50
62809;DHT22;48848;39.002;-94.584;2023-02-04T08:00:01;14.80;28.00
62809;DHT22;48848;39.002;-94.584;2023-02-04T08:02:27;14.60;28.20
62809;DHT22;48848;39.002;-94.584;2023-02-04T08:04:53;14.30;28.80
62809;DHT22;48848;39.002;-94.584;2023-02-04T08:07:19;14.00;29.00
62809;DHT22;48848;39.002;-94.584;2023-02-04T08:09:44;13.80;29.20
62809;DHT22;48848;39.002;-94.584;2023-02-04T08:12:11;13.60;29.40
62809;DHT22;48848;39.002;-94.584;2023-02-04T08:14:37;13.50;29.60
62809;DHT22;48848;39.002;-94.584;2023-02-04T08:17:03;13.40;29.70
62809;DHT22;48848;39.002;-94.584;2023-02-04T08:19:28;13.30;29.70
62809;DHT22;48848;39.002;-94.584;2023-02-04T08:21:54;13.20;29.80
62809;DHT22;48848;39.002;-94.584;2023-02-04T08:24:20;13.20;29.80
62809;DHT22;48848;39.002;-94.584;2023-02-04T08:26:46;13.20;30.00
62809;DHT22;48848;39.002;-94.584;2023-02-04T08:29:12;13.40;30.00
62809;DHT22;48848;39.002;-94.584;2023-02-04T08:31:38;13.90;29.60
62809;DHT22;48848;39.002;-94.584;2023-02-04T08:34:04;14.60;29.10
62809;DHT22;48848;39.002;-94.584;2023-02-04T08:36:30;14.90;28.50
62809;DHT22;48848;39.002;-94.584;2023-02-04T08:38:56;14.70;28.70
62809;DHT22;48848;39.002;-94.584;2023-02-04T08:41:22;14.40;29.10
62809;DHT22;48848;39.002;-94.584;2023-02-04T08:43:48;14.10;29.40
62809;DHT22;48848;39.002;-94.584;2023-02-04T08:46:14;13.80;29.60
62809;DHT22;48848;39.002;-94.584;2023-02-04T08:48:39;13.70;29.80
62809;DHT22;48848;39.002;-94.584;2023-02-04T08:51:05;13.50;30.00
62809;DHT22;48848;39.002;-94.584;2023-02-04T08:53:31;13.40;30.00
62809;DHT22;48848;39.002;-94.584;2023-02-04T08:55:57;13.30;30.10
62809;DHT22;48848;39.002;-94.584;2023-02-04T08:58:23;13.20;30.10
62809;DHT22;48848;39.002;-94.584;2023-02-04T09:00:49;13.20;30.20
62809;DHT22;48848;39.002;-94.584;2023-02-04T09:03:15;13.10;30.30
62809;DHT22;48848;39.002;-94.584;2023-02-04T09:05:41;13.30;30.40
62809;DHT22;48848;39.002;-94.584;2023-02-04T09:08:07;13.90;30.90
62809;DHT22;48848;39.002;-94.584;2023-02-04T09:10:33;14.50;29.60
62809;DHT22;48848;39.002;-94.584;2023-02-04T09:12:58;14.80;28.90
62809;DHT22;48848;39.002;-94.584;2023-02-04T09:15:24;14.60;29.00
62809;DHT22;48848;39.002;-94.584;2023-02-04T09:17:50;14.30;29.50
62809;DHT22;48848;39.002;-94.584;2023-02-04T09:20:18;14.00;29.80
62809;DHT22;48848;39.002;-94.584;2023-02-04T09:22:46;13.80;30.00
62809;DHT22;48848;39.002;-94.584;2023-02-04T09:25:14;13.60;30.10
62809;DHT22;48848;39.002;-94.584;2023-02-04T09:27:40;13.50;30.30
62809;DHT22;48848;39.002;-94.584;2023-02-04T09:30:06;13.50;30.60
62809;DHT22;48848;39.002;-94.584;2023-02-04T09:32:32;13.30;30.60
62809;DHT22;48848;39.002;-94.584;2023-02-04T09:34:58;13.30;30.80
62809;DHT22;48848;39.002;-94.584;2023-02-04T09:37:24;13.20;30.80
62809;DHT22;48848;39.002;-94.584;2023-02-04T09:39:51;13.30;31.00
62809;DHT22;48848;39.002;-94.584;2023-02-04T09:42:17;13.70;30.60
62809;DHT22;48848;39.002;-94.584;2023-02-04T09:44:43;14.50;30.00
62809;DHT22;48848;39.002;-94.584;2023-02-04T09:47:10;15.30;29.20
62809;DHT22;48848;39.002;-94.584;2023-02-04T09:49:37;15.20;28.90
62809;DHT22;48848;39.002;-94.584;2023-02-04T09:52:02;14.70;29.30
62809;DHT22;48848;39.002;-94.584;2023-02-04T09:54:28;14.30;29.80
62809;DHT22;48848;39.002;-94.584;2023-02-04T09:56:54;14.00;30.10
62809;DHT22;48848;39.002;-94.584;2023-02-04T09:59:25;13.80;30.30
62809;DHT22;48848;39.002;-94.584;2023-02-04T10:02:01;13.60;30.50
62809;DHT22;48848;39.002;-94.584;2023-02-04T10:04:27;13.60;30.80
62809;DHT22;48848;39.002;-94.584;2023-02-04T10:06:54;13.50;30.90
62809;DHT22;48848;39.002;-94.584;2023-02-04T10:09:22;13.40;30.90
62809;DHT22;48848;39.002;-94.584;2023-02-04T10:11:48;13.30;31.10
62809;DHT22;48848;39.002;-94.584;2023-02-04T10:14:15;13.30;31.30
62809;DHT22;48848;39.002;-94.584;2023-02-04T10:16:42;13.60;31.20
62809;DHT22;48848;39.002;-94.584;2023-02-04T10:19:12;14.10;30.70
62809;DHT22;48848;39.002;-94.584;2023-02-04T10:21:39;14.90;30.20
62809;DHT22;48848;39.002;-94.584;2023-02-04T10:24:15;15.10;29.20
62809;DHT22;48848;39.002;-94.584;2023-02-04T10:26:41;14.90;29.40
62809;DHT22;48848;39.002;-94.584;2023-02-04T10:29:11;14.50;30.00
62809;DHT22;48848;39.002;-94.584;2023-02-04T10:31:39;14.20;30.30
62809;DHT22;48848;39.002;-94.584;2023-02-04T10:34:12;13.90;30.60
62809;DHT22;48848;39.002;-94.584;2023-02-04T10:36:39;13.80;30.90
62809;DHT22;48848;39.002;-94.584;2023-02-04T10:41:44;13.60;31.20
62809;DHT22;48848;39.002;-94.584;2023-02-04T10:44:11;13.50;31.30
62809;DHT22;48848;39.002;-94.584;2023-02-04T10:46:38;13.50;31.30
62809;DHT22;48848;39.002;-94.584;2023-02-04T10:49:04;13.40;31.40
62809;DHT22;48848;39.002;-94.584;2023-02-04T10:51:30;13.60;31.60
62809;DHT22;48848;39.002;-94.584;2023-02-04T10:53:57;14.00;31.20
62809;DHT22;48848;39.002;-94.584;2023-02-04T10:56:41;14.60;30.60
62809;DHT22;48848;39.002;-94.584;2023-02-04T10:59:11;15.20;29.60
62809;DHT22;48848;39.002;-94.584;2023-02-04T11:01:42;15.00;29.80
62809;DHT22;48848;39.002;-94.584;2023-02-04T11:04:09;14.60;30.10
62809;DHT22;48848;39.002;-94.584;2023-02-04T11:06:35;14.30;30.60
62809;DHT22;48848;39.002;-94.584;2023-02-04T11:09:01;14.00;30.80
62809;DHT22;48848;39.002;-94.584;2023-02-04T11:11:28;13.90;31.30
62809;DHT22;48848;39.002;-94.584;2023-02-04T11:16:23;13.70;31.40
62809;DHT22;48848;39.002;-94.584;2023-02-04T11:24:02;13.50;31.70
62809;DHT22;48848;39.002;-94.584;2023-02-04T11:26:35;13.50;31.90
62809;DHT22;48848;39.002;-94.584;2023-02-04T11:36:27;15.20;29.80
62809;DHT22;48848;39.002;-94.584;2023-02-04T11:38:54;15.80;29.80
62809;DHT22;48848;39.002;-94.584;2023-02-04T11:41:26;16.10;30.00
62809;DHT22;48848;39.002;-94.584;2023-02-04T11:43:57;17.10;29.00
62809;DHT22;48848;39.002;-94.584;2023-02-04T11:46:26;17.60;28.40
62809;DHT22;48848;39.002;-94.584;2023-02-04T11:48:56;18.30;28.10
62809;DHT22;48848;39.002;-94.584;2023-02-04T11:51:32;18.70;27.70
62809;DHT22;48848;39.002;-94.584;2023-02-04T11:53:59;19.20;27.10
62809;DHT22;48848;39.002;-94.584;2023-02-04T11:56:27;19.30;26.90
62809;DHT22;48848;39.002;-94.584;2023-02-04T11:58:55;19.60;26.80
62809;DHT22;48848;39.002;-94.584;2023-02-04T12:01:22;18.50;26.50
62809;DHT22;48848;39.002;-94.584;2023-02-04T12:03:50;17.50;27.80
62809;DHT22;48848;39.002;-94.584;2023-02-04T12:06:24;16.80;28.50
62809;DHT22;48848;39.002;-94.584;2023-02-04T12:08:51;16.30;29.10
62809;DHT22;48848;39.002;-94.584;2023-02-04T12:11:24;16.50;29.90
62809;DHT22;48848;39.002;-94.584;2023-02-04T12:13:55;17.40;29.40
62809;DHT22;48848;39.002;-94.584;2023-02-04T12:16:21;18.40;28.40
62809;DHT22;48848;39.002;-94.584;2023-02-04T12:18:48;19.20;27.70
62809;DHT22;48848;39.002;-94.584;2023-02-04T12:21:14;19.50;27.10
62809;DHT22;48848;39.002;-94.584;2023-02-04T12:23:40;18.50;26.90
62809;DHT22;48848;39.002;-94.584;2023-02-04T12:26:08;17.80;27.60
62809;DHT22;48848;39.002;-94.584;2023-02-04T12:28:34;17.30;28.00
62809;DHT22;48848;39.002;-94.584;2023-02-04T12:31:00;16.80;28.70
62809;DHT22;48848;39.002;-94.584;2023-02-04T12:33:26;16.30;29.40
62809;DHT22;48848;39.002;-94.584;2023-02-04T12:35:52;16.40;30.10
62809;DHT22;48848;39.002;-94.584;2023-02-04T12:38:18;17.40;29.80
62809;DHT22;48848;39.002;-94.584;2023-02-04T12:40:44;18.50;28.60
62809;DHT22;48848;39.002;-94.584;2023-02-04T12:43:10;19.30;27.90
62809;DHT22;48848;39.002;-94.584;2023-02-04T12:45:36;19.70;27.30
62809;DHT22;48848;39.002;-94.584;2023-02-04T12:48:02;18.60;27.20
62809;DHT22;48848;39.002;-94.584;2023-02-04T12:50:28;17.90;27.70
62809;DHT22;48848;39.002;-94.584;2023-02-04T12:52:55;17.30;28.30
62809;DHT22;48848;39.002;-94.584;2023-02-04T12:55:22;17.00;28.80
62809;DHT22;48848;39.002;-94.584;2023-02-04T12:57:48;16.70;29.00
62809;DHT22;48848;39.002;-94.584;2023-02-04T13:00:15;16.40;29.50
62809;DHT22;48848;39.002;-94.584;2023-02-04T13:02:42;16.30;30.00
62809;DHT22;48848;39.002;-94.584;2023-02-04T13:05:08;17.10;30.20
62809;DHT22;48848;39.002;-94.584;2023-02-04T13:07:34;18.10;29.30
62809;DHT22;48848;39.002;-94.584;2023-02-04T13:10:00;19.40;28.20
62809;DHT22;48848;39.002;-94.584;2023-02-04T13:12:26;19.30;26.90
62809;DHT22;48848;39.002;-94.584;2023-02-04T13:14:52;18.20;27.50
62809;DHT22;48848;39.002;-94.584;2023-02-04T13:17:18;17.50;28.40
62809;DHT22;48848;39.002;-94.584;2023-02-04T13:19:44;17.00;29.10
62809;DHT22;48848;39.002;-94.584;2023-02-04T13:22:10;16.50;29.50
62809;DHT22;48848;39.002;-94.584;2023-02-04T13:24:36;16.30;29.90
62809;DHT22;48848;39.002;-94.584;2023-02-04T13:27:02;16.10;30.20
62809;DHT22;48848;39.002;-94.584;2023-02-04T13:29:28;15.80;30.50
62809;DHT22;48848;39.002;-94.584;2023-02-04T13:31:54;16.00;30.80
62809;DHT22;48848;39.002;-94.584;2023-02-04T13:34:19;16.90;30.80
62809;DHT22;48848;39.002;-94.584;2023-02-04T13:36:45;17.90;29.80
62809;DHT22;48848;39.002;-94.584;2023-02-04T13:39:11;18.90;28.90
62809;DHT22;48848;39.002;-94.584;2023-02-04T13:41:37;18.10;27.90
62809;DHT22;48848;39.002;-94.584;2023-02-04T13:44:03;17.50;28.90
62809;DHT22;48848;39.002;-94.584;2023-02-04T13:46:29;16.90;29.30
62809;DHT22;48848;39.002;-94.584;2023-02-04T13:48:55;16.50;29.80
62809;DHT22;48848;39.002;-94.584;2023-02-04T13:51:21;16.20;30.00
62809;DHT22;48848;39.002;-94.584;2023-02-04T13:53:47;16.00;30.40
62809;DHT22;48848;39.002;-94.584;2023-02-04T13:56:13;15.80;30.80
62809;DHT22;48848;39.002;-94.584;2023-02-04T13:58:38;15.70;31.10
62809;DHT22;48848;39.002;-94.584;2023-02-04T14:01:09;16.00;31.00
62809;DHT22;48848;39.002;-94.584;2023-02-04T14:03:35;16.80;30.80
62809;DHT22;48848;39.002;-94.584;2023-02-04T14:06:01;18.10;29.70
62809;DHT22;48848;39.002;-94.584;2023-02-04T14:08:27;18.30;28.10
62809;DHT22;48848;39.002;-94.584;2023-02-04T14:10:53;17.60;28.70
62809;DHT22;48848;39.002;-94.584;2023-02-04T14:13:18;17.00;29.30
62809;DHT22;48848;39.002;-94.584;2023-02-04T14:15:44;16.60;29.70
62809;DHT22;48848;39.002;-94.584;2023-02-04T14:18:10;16.30;30.20
62809;DHT22;48848;39.002;-94.584;2023-02-04T14:20:36;16.10;30.30
62809;DHT22;48848;39.002;-94.584;2023-02-04T14:23:03;15.90;30.60
62809;DHT22;48848;39.002;-94.584;2023-02-04T14:25:29;15.80;31.10
62809;DHT22;48848;39.002;-94.584;2023-02-04T14:27:55;15.70;31.20
62809;DHT22;48848;39.002;-94.584;2023-02-04T14:30:22;16.10;31.70
62809;DHT22;48848;39.002;-94.584;2023-02-04T14:32:49;17.20;30.50
62809;DHT22;48848;39.002;-94.584;2023-02-04T14:35:15;18.10;29.60
62809;DHT22;48848;39.002;-94.584;2023-02-04T14:37:41;18.20;28.40
62809;DHT22;48848;39.002;-94.584;2023-02-04T14:40:08;17.60;28.70
62809;DHT22;48848;39.002;-94.584;2023-02-04T14:42:34;17.20;29.10
62809;DHT22;48848;39.002;-94.584;2023-02-04T14:45:00;16.90;29.70
62809;DHT22;48848;39.002;-94.584;2023-02-04T14:47:35;16.60;29.90
62809;DHT22;48848;39.002;-94.584;2023-02-04T14:50:02;16.50;30.00
62809;DHT22;48848;39.002;-94.584;2023-02-04T14:52:29;16.30;30.30
62809;DHT22;48848;39.002;-94.584;2023-02-04T14:54:54;16.10;30.70
62809;DHT22;48848;39.002;-94.584;2023-02-04T14:57:20;15.90;31.00
62809;DHT22;48848;39.002;-94.584;2023-02-04T14:59:46;15.90;31.10
62809;DHT22;48848;39.002;-94.584;2023-02-04T15:02:12;16.50;31.50
62809;DHT22;48848;39.002;-94.584;2023-02-04T15:04:42;17.80;30.10
62809;DHT22;48848;39.002;-94.584;2023-02-04T15:07:08;18.60;28.80
62809;DHT22;48848;39.002;-94.584;2023-02-04T15:09:34;18.00;28.40
62809;DHT22;48848;39.002;-94.584;2023-02-04T15:12:00;17.50;29.10
62809;DHT22;48848;39.002;-94.584;2023-02-04T15:14:25;17.10;29.50
62809;DHT22;48848;39.002;-94.584;2023-02-04T15:16:51;16.80;29.60